Time;durP1;ratioP1;P1;durP2;ratioP2;P2;SDS_P1;SDS_P2;PMS_P1;PMS_P2;Temp;Humidity;BMP_temperature;BMP_pressure;BME280_temperature;BME280_humidity;BME280_pressure;Samples;Min_cycle;Max_cycle;Signal;HPM_P1;HPM_P2
2021/12/11 00:02:25;;;;;;;48.37;22.90;;;1.40;99.90;;;;;;4995664;28;20196;-95
2021/12/11 00:04:57;;;;;;;53.93;23.90;;;1.50;99.90;;;;;;4995596;28;20188;-96
2021/12/11 00:07:25;;;;;;;50.50;23.70;;;1.50;99.90;;;;;;4995312;28;20207;-96
2021/12/11 00:10:05;;;;;;;50.27;24.27;;;1.50;99.90;;;;;;4995946;28;20182;-96
2021/12/11 00:12:36;;;;;;;54.63;24.13;;;1.50;99.90;;;;;;4995323;28;20168;-96
2021/12/11 00:15:06;;;;;;;51.40;24.10;;;1.50;99.90;;;;;;4995471;28;20172;-96
2021/12/11 00:17:33;;;;;;;52.73;24.80;;;1.50;99.90;;;;;;4995732;28;20599;-96
2021/12/11 00:20:00;;;;;;;57.90;26.90;;;1.50;99.90;;;;;;4995944;28;20186;-95
2021/12/11 00:22:30;;;;;;;45.07;22.07;;;1.50;99.90;;;;;;4995631;28;20606;-96
2021/12/11 00:25:05;;;;;;;46.50;23.80;;;1.50;99.90;;;;;;4995567;28;20183;-96
2021/12/11 00:27:33;;;;;;;46.13;21.87;;;1.50;99.90;;;;;;4995453;28;20215;-95
2021/12/11 00:29:59;;;;;;;45.73;22.23;;;1.50;99.90;;;;;;4995447;28;20202;-96
2021/12/11 00:32:29;;;;;;;39.33;21.20;;;1.50;99.90;;;;;;4995078;28;20184;-96
2021/12/11 00:35:05;;;;;;;41.83;20.43;;;1.50;99.90;;;;;;4995111;28;20242;-96
2021/12/11 00:37:32;;;;;;;43.20;21.93;;;1.50;99.90;;;;;;4995026;28;20172;-96
2021/12/11 00:40:23;;;;;;;45.30;22.20;;;1.50;99.90;;;;;;4995394;28;20184;-95
2021/12/11 00:42:53;;;;;;;43.33;20.60;;;1.50;99.90;;;;;;4991836;28;20282;-96
2021/12/11 00:45:23;;;;;;;51.17;22.43;;;1.50;99.90;;;;;;4994872;28;20179;-95
2021/12/11 00:48:00;;;;;;;44.63;21.40;;;1.50;99.90;;;;;;4994883;28;20212;-95
2021/12/11 00:50:30;;;;;;;66.63;26.63;;;1.60;99.90;;;;;;4994940;28;20187;-96
2021/12/11 00:53:04;;;;;;;60.37;27.50;;;1.50;99.90;;;;;;4995008;28;20574;-96
2021/12/11 00:55:40;;;;;;;81.43;29.37;;;1.50;99.90;;;;;;4995233;28;20183;-95
2021/12/11 00:58:15;;;;;;;60.13;26.50;;;1.50;99.90;;;;;;4994893;28;20299;-95
2021/12/11 01:00:49;;;;;;;63.63;27.10;;;1.50;99.90;;;;;;4994651;28;20328;-95
2021/12/11 01:03:18;;;;;;;62.87;28.03;;;1.50;99.90;;;;;;4994889;28;20186;-95
2021/12/11 01:05:49;;;;;;;54.33;24.80;;;1.40;99.90;;;;;;4994304;28;20537;-96
2021/12/11 01:08:20;;;;;;;53.20;23.83;;;1.50;99.90;;;;;;4994747;28;20210;-95
2021/12/11 01:10:49;;;;;;;60.10;25.33;;;1.40;99.90;;;;;;4994843;28;20177;-96
2021/12/11 01:13:19;;;;;;;62.03;27.73;;;1.50;99.90;;;;;;4994751;28;20183;-96
2021/12/11 01:15:55;;;;;;;68.67;27.70;;;1.50;99.90;;;;;;4995102;28;20267;-95
2021/12/11 01:18:33;;;;;;;68.27;28.50;;;1.50;99.90;;;;;;4995214;28;20243;-96
2021/12/11 01:24:13;;;;;;;50.43;22.97;;;1.50;99.90;;;;;;4995384;28;20302;-95
2021/12/11 01:26:49;;;;;;;48.40;21.70;;;1.50;99.90;;;;;;4994967;28;20203;-95
2021/12/11 01:29:19;;;;;;;53.07;23.77;;;1.50;99.90;;;;;;4994863;28;20190;-95
2021/12/11 01:31:48;;;;;;;50.40;22.87;;;1.50;99.90;;;;;;4995134;28;20215;-96
2021/12/11 01:34:14;;;;;;;46.90;22.43;;;1.50;99.90;;;;;;4994988;28;20196;-96
2021/12/11 01:36:41;;;;;;;56.27;23.87;;;1.50;99.90;;;;;;4994505;28;20569;-96
2021/12/11 01:39:14;;;;;;;50.60;23.70;;;1.50;99.90;;;;;;4994780;28;20176;-96
2021/12/11 01:41:42;;;;;;;50.60;23.63;;;1.50;99.90;;;;;;4994734;28;20245;-95
2021/12/11 01:44:27;;;;;;;56.40;24.87;;;1.50;99.90;;;;;;4994416;28;20198;-95
2021/12/11 01:47:21;;;;;;;61.67;24.83;;;1.50;99.90;;;;;;4994395;28;20218;-95
2021/12/11 01:49:51;;;;;;;50.20;22.90;;;1.50;99.90;;;;;;4993739;28;20211;-94
2021/12/11 01:52:31;;;;;;;56.93;24.87;;;1.50;99.90;;;;;;4994746;28;20191;-95
2021/12/11 01:55:00;;;;;;;50.50;23.50;;;1.40;99.90;;;;;;4994348;28;20164;-95
2021/12/11 01:57:29;;;;;;;50.33;24.03;;;1.40;99.90;;;;;;4994337;28;20180;-95
2021/12/11 02:00:07;;;;;;;54.00;24.23;;;1.50;99.90;;;;;;4994379;28;20231;-96
2021/12/11 02:02:37;;;;;;;54.07;24.27;;;1.50;99.90;;;;;;4994161;28;20178;-95
2021/12/11 02:05:05;;;;;;;62.57;26.03;;;1.40;99.90;;;;;;4994659;28;20194;-96
2021/12/11 02:07:39;;;;;;;56.13;24.93;;;1.50;99.90;;;;;;4994068;28;20263;-95
2021/12/11 02:10:12;;;;;;;54.50;24.47;;;1.50;99.90;;;;;;4994429;28;20167;-95
2021/12/11 02:12:43;;;;;;;62.90;24.77;;;1.50;99.90;;;;;;4994189;28;20215;-96
2021/12/11 02:15:26;;;;;;;49.07;24.20;;;1.50;99.90;;;;;;4994252;28;20178;-95
2021/12/11 02:18:11;;;;;;;47.07;22.67;;;1.50;99.90;;;;;;4994241;28;20179;-95
2021/12/11 02:20:42;;;;;;;55.10;24.10;;;1.40;99.90;;;;;;4995635;28;20207;-95
2021/12/11 02:23:11;;;;;;;55.80;24.70;;;1.40;99.90;;;;;;4997704;28;20170;-96
2021/12/11 02:25:46;;;;;;;59.33;25.90;;;1.40;99.90;;;;;;4997647;28;20184;-95
2021/12/11 02:28:24;;;;;;;59.53;24.60;;;1.50;99.90;;;;;;4998202;28;20211;-95
2021/12/11 02:31:05;;;;;;;51.70;24.90;;;1.40;99.90;;;;;;4997472;28;20176;-96
2021/12/11 02:33:42;;;;;;;51.40;24.67;;;1.40;99.90;;;;;;4997598;28;20262;-95
2021/12/11 02:36:17;;;;;;;53.37;24.60;;;1.40;99.90;;;;;;4997942;28;20533;-95
2021/12/11 02:39:06;;;;;;;52.90;24.80;;;1.40;99.90;;;;;;4997337;28;20170;-95
2021/12/11 02:41:38;;;;;;;52.53;24.00;;;1.40;99.90;;;;;;4997707;28;20185;-95
2021/12/11 02:44:27;;;;;;;51.00;23.27;;;1.40;99.90;;;;;;4997266;28;20610;-95
2021/12/11 02:47:07;;;;;;;57.07;25.23;;;1.40;99.90;;;;;;4997508;28;20195;-95
2021/12/11 02:49:43;;;;;;;51.07;23.27;;;1.40;99.90;;;;;;4997538;28;20234;-95
2021/12/11 02:52:23;;;;;;;51.23;22.70;;;1.40;99.90;;;;;;4997726;28;20214;-95
2021/12/11 02:55:14;;;;;;;57.50;22.80;;;1.40;99.90;;;;;;4996916;28;20258;-96
2021/12/11 02:57:50;;;;;;;63.07;22.70;;;1.30;99.90;;;;;;4997812;28;20186;-95
2021/12/11 03:00:20;;;;;;;49.67;23.07;;;1.40;99.90;;;;;;4997171;28;20228;-95
2021/12/11 03:02:50;;;;;;;65.90;21.83;;;1.30;99.90;;;;;;4997291;28;20179;-95
2021/12/11 03:05:24;;;;;;;81.60;24.60;;;1.30;99.90;;;;;;4977372;28;20212;-94
2021/12/11 03:07:53;;;;;;;50.13;23.37;;;1.30;99.90;;;;;;4977249;28;20205;-96
2021/12/11 03:10:24;;;;;;;57.83;22.57;;;1.30;99.90;;;;;;4977852;28;20172;-95
2021/12/11 03:12:52;;;;;;;123.63;21.60;;;1.20;99.90;;;;;;4978110;28;20176;-95
2021/12/11 03:15:18;;;;;;;120.33;23.57;;;1.20;99.90;;;;;;4977206;28;20176;-96
2021/12/11 03:17:45;;;;;;;58.77;22.73;;;1.10;99.90;;;;;;4977311;28;20191;-95
2021/12/11 03:20:14;;;;;;;51.07;22.53;;;1.10;99.90;;;;;;4978055;28;20254;-96
2021/12/11 03:22:43;;;;;;;60.13;23.07;;;1.10;99.90;;;;;;4977756;28;20219;-95
2021/12/11 03:25:14;;;;;;;58.93;22.73;;;1.20;99.90;;;;;;4977366;28;20206;-95
2021/12/11 03:27:40;;;;;;;48.60;21.70;;;1.20;99.90;;;;;;4977252;28;20758;-95
2021/12/11 03:30:08;;;;;;;42.37;20.40;;;1.30;99.90;;;;;;4976971;28;20179;-95
2021/12/11 03:32:35;;;;;;;40.27;19.20;;;1.20;99.90;;;;;;4977354;28;20183;-95
2021/12/11 03:35:02;;;;;;;49.67;18.83;;;1.20;99.90;;;;;;4994714;28;20184;-95
2021/12/11 03:37:28;;;;;;;115.03;24.17;;;1.10;99.90;;;;;;5401271;23;20749;-94
2021/12/11 03:39:55;;;;;;;95.60;20.73;;;1.00;99.90;;;;;;4976847;28;20228;-95
2021/12/11 03:42:25;;;;;;;54.70;19.80;;;1.00;99.90;;;;;;4993041;28;20222;-94
2021/12/11 03:44:51;;;;;;;41.97;19.77;;;1.00;99.90;;;;;;4978954;28;20184;-95
2021/12/11 03:47:22;;;;;;;52.47;19.87;;;0.90;99.90;;;;;;4976671;28;20691;-95
2021/12/11 03:49:48;;;;;;;55.10;18.87;;;0.90;99.90;;;;;;4992930;28;20219;-94
2021/12/11 03:52:15;;;;;;;44.43;20.70;;;0.90;99.90;;;;;;4992611;28;20181;-94
2021/12/11 03:54:42;;;;;;;55.63;20.53;;;0.90;99.90;;;;;;4992734;28;20246;-95
2021/12/11 03:57:12;;;;;;;49.63;18.07;;;0.90;99.90;;;;;;4975610;28;20194;-95
2021/12/11 03:59:38;;;;;;;47.70;16.93;;;0.90;99.90;;;;;;4976058;28;20183;-95
2021/12/11 04:02:09;;;;;;;42.97;17.10;;;0.90;99.90;;;;;;4976319;28;20642;-94
2021/12/11 04:04:52;;;;;;;48.77;17.50;;;0.90;99.90;;;;;;4988360;28;20188;-95
2021/12/11 04:07:28;;;;;;;38.27;17.80;;;0.90;99.90;;;;;;4995038;28;20274;-95
2021/12/11 04:09:54;;;;;;;53.10;17.43;;;0.90;99.90;;;;;;4995532;28;20174;-95
2021/12/11 04:12:22;;;;;;;59.23;18.37;;;0.90;99.90;;;;;;4991250;28;20625;-95
2021/12/11 04:14:53;;;;;;;33.33;16.73;;;0.90;99.90;;;;;;4985189;28;20187;-95
2021/12/11 04:17:22;;;;;;;51.50;17.73;;;0.90;99.90;;;;;;4991891;28;20186;-94
2021/12/11 04:19:50;;;;;;;54.13;17.60;;;0.90;99.90;;;;;;4992230;28;20187;-94
2021/12/11 04:22:16;;;;;;;37.03;16.87;;;1.00;99.90;;;;;;4992180;28;20184;-94
2021/12/11 04:24:43;;;;;;;31.90;16.53;;;0.90;99.90;;;;;;4992104;28;20184;-95
2021/12/11 04:27:13;;;;;;;35.97;16.73;;;0.90;99.90;;;;;;4991924;28;20211;-94
2021/12/11 04:29:40;;;;;;;35.53;17.97;;;0.90;99.90;;;;;;4991849;28;20178;-94
2021/12/11 04:32:06;;;;;;;38.13;17.87;;;0.90;99.90;;;;;;4981001;28;20191;-95
2021/12/11 04:34:33;;;;;;;40.93;17.80;;;0.90;99.90;;;;;;4976130;28;20181;-94
2021/12/11 04:37:14;;;;;;;62.93;17.63;;;0.90;99.90;;;;;;4991446;28;20232;-95
2021/12/11 04:39:44;;;;;;;39.43;17.17;;;0.90;99.90;;;;;;4975991;28;20190;-95
2021/12/11 04:42:35;;;;;;;32.90;16.93;;;0.90;99.90;;;;;;4975695;28;20173;-95
2021/12/11 04:44:58;;;;;;;44.90;17.00;;;0.90;99.90;;;;;;4976289;28;20627;-95
2021/12/11 04:47:44;;;;;;;42.37;16.90;;;0.90;99.90;;;;;;4986980;28;20529;-95
2021/12/11 04:50:35;;;;;;;96.77;17.87;;;0.80;99.90;;;;;;4975290;28;20182;-95
2021/12/11 04:53:03;;;;;;;81.13;16.40;;;0.80;99.90;;;;;;5002032;28;20654;-95
2021/12/11 05:11:09;;;;;;;34.03;16.70;;;0.80;99.90;;;;;;4984093;28;20176;-95
2021/12/11 05:13:35;;;;;;;34.90;16.17;;;0.90;99.90;;;;;;4990762;28;20188;-94
2021/12/11 05:16:06;;;;;;;31.87;15.87;;;0.90;99.90;;;;;;4991580;28;20177;-94
2021/12/11 05:18:34;;;;;;;38.40;16.10;;;0.90;99.90;;;;;;4991572;28;20223;-94
2021/12/11 05:21:05;;;;;;;28.90;16.00;;;0.80;99.90;;;;;;4991611;28;20196;-95
2021/12/11 05:23:31;;;;;;;38.33;15.87;;;0.80;99.90;;;;;;4991433;28;20603;-95
2021/12/11 05:25:58;;;;;;;36.53;15.53;;;0.80;99.90;;;;;;4991388;28;20634;-95
2021/12/11 05:28:24;;;;;;;29.50;14.53;;;0.80;99.90;;;;;;4991332;28;20213;-94
2021/12/11 05:30:52;;;;;;;28.00;15.80;;;0.70;99.90;;;;;;4990851;28;20235;-94
2021/12/11 05:33:20;;;;;;;26.63;14.43;;;0.70;99.90;;;;;;4993551;28;20278;-95
2021/12/11 05:35:48;;;;;;;26.87;14.97;;;0.70;99.90;;;;;;4994087;28;20264;-95
2021/12/11 05:38:16;;;;;;;36.43;15.50;;;0.70;99.90;;;;;;4990266;28;20286;-95
2021/12/11 05:40:46;;;;;;;26.67;14.40;;;0.70;99.90;;;;;;4992820;28;20212;-94
2021/12/11 05:43:11;;;;;;;32.37;15.03;;;0.70;99.90;;;;;;4995048;28;20180;-94
2021/12/11 05:45:39;;;;;;;30.97;15.60;;;0.70;99.90;;;;;;4989975;28;20245;-95
2021/12/11 05:48:10;;;;;;;28.10;14.23;;;0.60;99.90;;;;;;4992227;28;20268;-94
2021/12/11 05:50:49;;;;;;;29.00;15.70;;;0.70;99.90;;;;;;4989969;28;20211;-94
2021/12/11 05:53:17;;;;;;;25.77;14.37;;;0.70;99.90;;;;;;4991441;28;20188;-94
2021/12/11 05:55:46;;;;;;;24.80;13.93;;;0.70;99.90;;;;;;4976391;28;20202;-95
2021/12/11 05:58:15;;;;;;;25.43;14.33;;;0.70;99.90;;;;;;4978497;28;20235;-94
2021/12/11 06:00:52;;;;;;;24.23;13.53;;;0.60;99.90;;;;;;4978690;28;20208;-94
2021/12/11 06:03:18;;;;;;;29.63;16.50;;;0.70;99.90;;;;;;4980599;28;20224;-95
2021/12/11 06:05:46;;;;;;;33.53;16.67;;;0.60;99.90;;;;;;4997732;28;20187;-94
2021/12/11 06:08:12;;;;;;;37.63;17.43;;;0.60;99.90;;;;;;4997569;28;20242;-94
2021/12/11 06:10:40;;;;;;;35.83;16.37;;;0.60;99.90;;;;;;4997930;28;20183;-95
2021/12/11 06:13:07;;;;;;;28.77;15.30;;;0.60;99.90;;;;;;4995975;28;20195;-94
2021/12/11 06:15:34;;;;;;;27.70;15.47;;;0.50;99.90;;;;;;4998606;28;20233;-94
2021/12/11 06:18:02;;;;;;;29.17;16.67;;;0.60;99.90;;;;;;5001867;28;20176;-94
2021/12/11 06:20:31;;;;;;;26.87;15.80;;;0.50;99.90;;;;;;4999690;28;20189;-94
2021/12/11 06:22:57;;;;;;;25.93;14.87;;;0.50;99.90;;;;;;5000199;28;20203;-94
2021/12/11 06:25:28;;;;;;;29.00;16.10;;;0.50;99.90;;;;;;4992445;28;20246;-94
2021/12/11 06:27:54;;;;;;;28.17;16.30;;;0.50;99.90;;;;;;4987053;28;20212;-94
2021/12/11 06:30:21;;;;;;;29.80;16.20;;;0.50;99.90;;;;;;4997084;28;20631;-94
2021/12/11 06:32:48;;;;;;;27.33;15.93;;;0.50;99.90;;;;;;4981942;28;20188;-94
2021/12/11 06:35:20;;;;;;;29.83;16.83;;;0.50;99.90;;;;;;4996490;28;20632;-94
2021/12/11 06:37:46;;;;;;;29.10;16.53;;;0.50;99.90;;;;;;4997117;28;20227;-94
2021/12/11 06:40:15;;;;;;;29.77;16.13;;;0.60;99.90;;;;;;5000848;28;20556;-95
2021/12/11 06:42:40;;;;;;;31.20;16.97;;;0.60;99.90;;;;;;4980747;28;20182;-94
2021/12/11 06:45:06;;;;;;;28.53;17.03;;;0.50;99.90;;;;;;4980286;28;20173;-94
2021/12/11 06:47:32;;;;;;;35.00;17.97;;;0.50;99.90;;;;;;4981256;28;20352;-95
2021/12/11 06:50:00;;;;;;;32.10;17.47;;;0.60;99.90;;;;;;4978515;28;20215;-94
2021/12/11 06:52:27;;;;;;;28.57;15.83;;;0.60;99.90;;;;;;4983366;28;20186;-94
2021/12/11 06:54:54;;;;;;;24.97;15.00;;;0.70;99.90;;;;;;4987892;28;20181;-95
2021/12/11 06:57:19;;;;;;;26.60;15.70;;;0.60;99.90;;;;;;4980828;28;20175;-94
2021/12/11 06:59:47;;;;;;;24.07;15.13;;;0.60;99.90;;;;;;4978393;28;20204;-94
2021/12/11 07:02:16;;;;;;;23.70;15.13;;;0.60;99.90;;;;;;4993618;28;20538;-94
2021/12/11 07:04:42;;;;;;;24.80;14.90;;;0.60;99.90;;;;;;4993901;28;20187;-94
2021/12/11 07:07:07;;;;;;;26.27;15.23;;;0.60;99.90;;;;;;4999651;28;20314;-94
2021/12/11 07:09:34;;;;;;;26.10;15.57;;;0.60;99.90;;;;;;4993233;28;20191;-95
2021/12/11 07:12:00;;;;;;;26.40;15.20;;;0.60;99.90;;;;;;4995920;28;20217;-94
2021/12/11 07:14:30;;;;;;;29.10;16.97;;;0.60;99.90;;;;;;4996756;28;20180;-94
2021/12/11 07:16:56;;;;;;;30.33;16.80;;;0.60;99.90;;;;;;4996357;28;20179;-94
2021/12/11 07:19:22;;;;;;;29.47;17.03;;;0.60;99.90;;;;;;4997669;28;20270;-95
2021/12/11 07:21:50;;;;;;;27.10;16.87;;;0.60;99.90;;;;;;4997200;28;20180;-94
2021/12/11 07:24:19;;;;;;;32.97;18.63;;;0.60;99.90;;;;;;4996760;28;20382;-94
2021/12/11 07:26:47;;;;;;;34.73;18.50;;;0.60;99.90;;;;;;4997962;28;20215;-94
2021/12/11 07:29:19;;;;;;;35.13;18.80;;;0.60;99.90;;;;;;4998015;28;20180;-94
2021/12/11 07:31:46;;;;;;;31.43;17.57;;;0.60;99.90;;;;;;4997637;28;20179;-96
2021/12/11 07:34:13;;;;;;;31.17;18.00;;;0.60;99.90;;;;;;4997063;28;20251;-95
2021/12/11 07:36:39;;;;;;;31.07;17.50;;;0.60;99.90;;;;;;4995749;28;20180;-94
2021/12/11 07:39:09;;;;;;;33.63;18.40;;;0.60;99.90;;;;;;4996427;28;20181;-95
2021/12/11 07:41:35;;;;;;;40.07;18.77;;;0.60;99.90;;;;;;4996074;28;20189;-95
2021/12/11 07:44:02;;;;;;;34.63;19.10;;;0.60;99.90;;;;;;4996489;28;20191;-95
2021/12/11 07:46:29;;;;;;;34.87;18.17;;;0.60;99.90;;;;;;4996466;28;20200;-95
2021/12/11 07:48:57;;;;;;;34.13;19.40;;;0.60;99.90;;;;;;4995031;28;20327;-95
2021/12/11 07:51:25;;;;;;;35.50;18.93;;;0.60;99.90;;;;;;4996331;28;20184;-96
2021/12/11 07:53:51;;;;;;;32.83;18.93;;;0.60;99.90;;;;;;4996557;28;20175;-95
2021/12/11 07:56:19;;;;;;;36.30;19.17;;;0.60;99.90;;;;;;4996499;28;20183;-95
2021/12/11 07:58:45;;;;;;;32.20;18.87;;;0.60;99.90;;;;;;4997621;28;20259;-93
2021/12/11 08:01:11;;;;;;;35.83;19.20;;;0.50;99.90;;;;;;4998852;28;20196;-95
2021/12/11 08:03:38;;;;;;;34.07;20.00;;;0.60;99.90;;;;;;4997258;28;20188;-94
2021/12/11 08:06:05;;;;;;;33.67;19.77;;;0.60;99.90;;;;;;4997940;28;20267;-95
2021/12/11 08:08:31;;;;;;;34.03;19.27;;;0.50;99.90;;;;;;4997223;28;20212;-95
2021/12/11 08:11:00;;;;;;;33.97;18.80;;;0.60;99.90;;;;;;4997054;28;20283;-95
2021/12/11 08:13:26;;;;;;;33.33;19.07;;;0.60;99.90;;;;;;4998300;28;20180;-94
2021/12/11 08:15:54;;;;;;;34.03;18.87;;;0.60;99.90;;;;;;4995393;28;20293;-95
2021/12/11 08:18:21;;;;;;;33.03;19.10;;;0.60;99.90;;;;;;4993332;28;20239;-93
2021/12/11 08:20:47;;;;;;;30.63;17.47;;;0.60;99.90;;;;;;4994826;28;20209;-94
2021/12/11 08:23:16;;;;;;;30.33;17.03;;;0.60;99.90;;;;;;5011747;28;20179;-93
2021/12/11 08:25:44;;;;;;;30.47;17.30;;;0.70;99.90;;;;;;4995477;28;20177;-93
2021/12/11 08:28:14;;;;;;;31.17;17.60;;;0.70;99.90;;;;;;5017311;28;20549;-93
2021/12/11 08:30:43;;;;;;;28.20;16.37;;;0.70;99.90;;;;;;4994992;28;20319;-93
2021/12/11 08:33:08;;;;;;;37.07;18.50;;;0.70;99.90;;;;;;4996705;28;20184;-94
2021/12/11 08:35:36;;;;;;;34.43;18.57;;;0.70;99.90;;;;;;5017433;28;20176;-92
2021/12/11 08:38:05;;;;;;;38.77;19.50;;;0.70;99.90;;;;;;4998421;28;20730;-93
2021/12/11 08:40:33;;;;;;;39.67;19.33;;;0.70;99.90;;;;;;4995665;28;20266;-93
2021/12/11 08:43:00;;;;;;;32.97;19.30;;;0.70;99.90;;;;;;4995665;28;20190;-94
2021/12/11 08:45:43;;;;;;;36.77;20.13;;;0.70;99.90;;;;;;5011451;28;20173;-94
2021/12/11 08:48:10;;;;;;;34.97;19.53;;;0.60;99.90;;;;;;4995712;28;20200;-95
2021/12/11 08:50:37;;;;;;;35.63;18.90;;;0.60;99.90;;;;;;4995113;28;20183;-96
2021/12/11 08:53:03;;;;;;;38.43;19.40;;;0.60;99.90;;;;;;5012529;28;20247;-95
2021/12/11 08:55:36;;;;;;;35.67;18.80;;;0.60;99.90;;;;;;4995158;28;20177;-95
2021/12/11 08:58:07;;;;;;;33.07;18.47;;;0.50;99.90;;;;;;5010874;28;20629;-94
2021/12/11 09:00:53;;;;;;;37.63;20.10;;;0.50;99.90;;;;;;4995579;28;20516;-95
2021/12/11 09:03:37;;;;;;;39.50;19.50;;;0.50;99.90;;;;;;4995603;28;20199;-94
2021/12/11 09:06:06;;;;;;;38.57;20.27;;;0.50;99.90;;;;;;4995157;28;20166;-95
2021/12/11 09:08:49;;;;;;;39.33;20.77;;;0.60;99.90;;;;;;4994397;28;20210;-95
2021/12/11 09:11:32;;;;;;;36.90;21.33;;;0.60;99.90;;;;;;5012948;28;20218;-95
2021/12/11 09:14:09;;;;;;;38.23;20.13;;;0.70;99.90;;;;;;4996612;28;20250;-95
2021/12/11 09:16:51;;;;;;;36.53;20.80;;;0.70;99.90;;;;;;4993084;28;20439;-94
2021/12/11 09:19:24;;;;;;;33.67;19.33;;;0.70;99.90;;;;;;4998620;28;20527;-95
2021/12/11 09:22:17;;;;;;;32.53;18.07;;;0.70;99.90;;;;;;5012350;28;20184;-95
2021/12/11 09:24:55;;;;;;;31.30;18.27;;;0.80;99.90;;;;;;5005206;28;20196;-96
2021/12/11 09:27:30;;;;;;;33.17;18.27;;;0.70;99.90;;;;;;4981820;28;20202;-95
2021/12/11 09:30:07;;;;;;;29.97;17.70;;;0.80;99.90;;;;;;4987029;28;20179;-95
2021/12/11 09:33:13;;;;;;;25.83;17.00;;;0.80;99.90;;;;;;4995562;28;20182;-95
2021/12/11 09:35:55;;;;;;;31.07;18.57;;;0.80;99.90;;;;;;4898647;29;20178;-96
2021/12/11 09:38:27;;;;;;;30.63;18.20;;;0.80;99.90;;;;;;4992227;28;20266;-95
2021/12/11 09:40:55;;;;;;;28.57;18.23;;;0.80;99.90;;;;;;5018734;28;20160;-95
2021/12/11 09:43:33;;;;;;;30.93;19.23;;;0.80;99.90;;;;;;4999671;28;20180;-95
2021/12/11 09:46:00;;;;;;;28.33;17.97;;;0.90;99.90;;;;;;4998778;28;20519;-94
2021/12/11 09:48:26;;;;;;;28.13;18.17;;;0.90;99.90;;;;;;5015486;28;20216;-95
2021/12/11 09:51:01;;;;;;;27.90;17.53;;;0.90;99.90;;;;;;4998744;28;20266;-96
2021/12/11 09:53:39;;;;;;;29.73;19.43;;;0.90;99.90;;;;;;4998119;28;20180;-96
2021/12/11 09:56:10;;;;;;;27.20;18.00;;;0.90;99.90;;;;;;5006365;28;20573;-94
2021/12/11 09:58:37;;;;;;;31.80;19.37;;;1.00;99.90;;;;;;4998605;28;20468;-95
2021/12/11 10:01:18;;;;;;;29.77;18.33;;;0.90;99.90;;;;;;4999669;28;20184;-96
2021/12/11 10:03:52;;;;;;;30.90;17.17;;;1.00;99.90;;;;;;4997322;28;20198;-95
2021/12/11 10:06:39;;;;;;;28.60;18.50;;;1.00;99.90;;;;;;4998050;28;20207;-95
2021/12/11 10:09:20;;;;;;;31.63;19.10;;;1.00;99.90;;;;;;4997651;28;20230;-95
2021/12/11 10:11:51;;;;;;;31.33;18.63;;;1.10;99.90;;;;;;4998090;28;20203;-95
2021/12/11 10:14:21;;;;;;;29.40;19.27;;;1.10;99.90;;;;;;5015461;28;20182;-94
2021/12/11 10:16:51;;;;;;;30.10;18.13;;;1.20;99.90;;;;;;4997891;28;20176;-96
2021/12/11 10:19:19;;;;;;;31.53;18.57;;;1.20;99.90;;;;;;5015835;28;20211;-96
2021/12/11 10:21:56;;;;;;;31.37;19.30;;;1.10;99.90;;;;;;4999071;28;20187;-95
2021/12/11 10:24:26;;;;;;;29.73;18.67;;;1.10;99.90;;;;;;4998818;28;20184;-96
2021/12/11 10:26:56;;;;;;;31.10;18.63;;;1.10;99.90;;;;;;5001114;28;20521;-95
2021/12/11 10:29:23;;;;;;;30.73;17.77;;;1.10;99.90;;;;;;4998925;28;20185;-96
2021/12/11 10:32:00;;;;;;;30.90;18.47;;;1.10;99.90;;;;;;4985269;28;20185;-96
2021/12/11 10:34:29;;;;;;;28.83;18.33;;;1.20;99.90;;;;;;4999160;28;20198;-96
2021/12/11 10:37:05;;;;;;;29.57;17.57;;;1.20;99.90;;;;;;4997122;28;20280;-94
2021/12/11 10:39:31;;;;;;;26.50;17.73;;;1.20;99.90;;;;;;4998689;28;20322;-95
2021/12/11 10:41:57;;;;;;;28.53;17.23;;;1.20;99.90;;;;;;4998682;28;20250;-95
2021/12/11 10:44:28;;;;;;;28.43;18.20;;;1.20;99.90;;;;;;4998544;28;20623;-95
2021/12/11 10:47:07;;;;;;;27.17;17.80;;;1.30;99.90;;;;;;4998447;28;20208;-96
2021/12/11 10:49:34;;;;;;;26.53;17.03;;;1.30;99.90;;;;;;5002332;28;20184;-95
2021/12/11 10:52:07;;;;;;;25.30;17.27;;;1.30;99.90;;;;;;5001051;28;20185;-96
2021/12/11 10:54:33;;;;;;;30.17;18.13;;;1.30;99.90;;;;;;4998386;28;20194;-95
2021/12/11 10:56:59;;;;;;;27.53;17.80;;;1.30;99.90;;;;;;4999350;28;20186;-96
2021/12/11 10:59:31;;;;;;;26.97;18.23;;;1.30;99.90;;;;;;5002512;28;20180;-96
2021/12/11 11:02:06;;;;;;;27.50;17.97;;;1.30;99.90;;;;;;5004455;28;20184;-96
2021/12/11 11:04:37;;;;;;;26.73;17.23;;;1.30;99.90;;;;;;5005629;28;20635;-96
2021/12/11 11:07:04;;;;;;;25.20;16.73;;;1.30;99.90;;;;;;5002540;28;20200;-96
2021/12/11 11:09:31;;;;;;;31.20;18.93;;;1.30;99.90;;;;;;4997855;28;20585;-95
2021/12/11 11:12:00;;;;;;;28.70;18.13;;;1.20;99.90;;;;;;4997039;28;20183;-96
2021/12/11 11:14:27;;;;;;;25.43;16.90;;;1.20;99.90;;;;;;4997625;28;20270;-96
2021/12/11 11:17:00;;;;;;;25.03;16.47;;;1.30;99.90;;;;;;4997719;28;20744;-96
2021/12/11 11:19:29;;;;;;;25.17;16.03;;;1.30;99.90;;;;;;5003734;28;20176;-96
2021/12/11 11:21:59;;;;;;;25.47;16.47;;;1.30;99.90;;;;;;4999764;28;20644;-96
2021/12/11 11:24:34;;;;;;;27.97;17.27;;;1.20;99.90;;;;;;5001295;28;20558;-96
2021/12/11 11:27:01;;;;;;;29.30;17.77;;;1.20;99.90;;;;;;4999268;28;20234;-96
2021/12/11 11:29:27;;;;;;;28.50;18.47;;;1.20;99.90;;;;;;4998745;28;20692;-96
2021/12/11 11:31:59;;;;;;;30.07;18.77;;;1.20;99.90;;;;;;4998491;28;20618;-96
2021/12/11 11:34:27;;;;;;;31.43;19.30;;;1.30;99.90;;;;;;4998590;28;20179;-96
2021/12/11 11:36:56;;;;;;;39.23;19.20;;;1.30;99.90;;;;;;4997107;28;20235;-96
2021/12/11 11:39:23;;;;;;;35.20;19.87;;;1.40;99.90;;;;;;4997412;28;20163;-96
2021/12/11 11:41:54;;;;;;;34.90;20.17;;;1.40;99.90;;;;;;4997901;28;20284;-96
2021/12/11 11:44:21;;;;;;;36.83;20.87;;;1.50;99.90;;;;;;4998668;28;20200;-96
2021/12/11 11:46:47;;;;;;;34.23;19.97;;;1.50;99.90;;;;;;4998190;28;20195;-95
2021/12/11 11:49:15;;;;;;;33.50;19.70;;;1.60;99.90;;;;;;4999329;28;20181;-96
2021/12/11 11:51:59;;;;;;;32.93;20.20;;;1.60;99.90;;;;;;4998342;28;20192;-95
2021/12/11 11:54:28;;;;;;;33.77;20.50;;;1.70;99.90;;;;;;4998955;28;20237;-94
2021/12/11 11:57:12;;;;;;;31.50;19.53;;;1.60;99.90;;;;;;4997427;28;20259;-96
2021/12/11 11:59:39;;;;;;;34.80;19.63;;;1.60;99.90;;;;;;4998361;28;20172;-95
2021/12/11 12:02:27;;;;;;;31.20;19.23;;;1.60;99.90;;;;;;4998923;28;20237;-93
2021/12/11 12:05:00;;;;;;;30.03;18.80;;;1.60;99.90;;;;;;4998732;28;20195;-96
2021/12/11 12:07:29;;;;;;;31.80;19.90;;;1.60;99.90;;;;;;4997677;28;20836;-95
2021/12/11 12:10:01;;;;;;;34.63;20.20;;;1.60;99.90;;;;;;4997968;28;20190;-95
2021/12/11 12:12:27;;;;;;;36.60;21.47;;;1.60;99.90;;;;;;4997493;28;20180;-96
2021/12/11 12:14:56;;;;;;;34.37;19.43;;;1.70;99.90;;;;;;4999581;28;20180;-95
2021/12/11 12:17:25;;;;;;;31.97;20.13;;;1.80;99.90;;;;;;5000340;28;20195;-96
2021/12/11 12:19:53;;;;;;;35.43;20.53;;;1.80;99.90;;;;;;4998823;28;20236;-95
2021/12/11 12:22:21;;;;;;;35.03;21.23;;;1.80;99.90;;;;;;4996633;28;20242;-96
2021/12/11 12:24:50;;;;;;;32.17;20.10;;;1.80;99.90;;;;;;4997086;28;20184;-96
2021/12/11 12:27:21;;;;;;;33.83;20.17;;;1.80;99.90;;;;;;4999356;28;20208;-96
2021/12/11 12:29:48;;;;;;;34.40;21.67;;;1.80;99.90;;;;;;4998533;28;20180;-96
2021/12/11 12:32:22;;;;;;;33.83;21.27;;;1.80;99.90;;;;;;4998853;28;20175;-96
2021/12/11 12:34:51;;;;;;;34.63;21.70;;;1.80;99.90;;;;;;4997136;28;20189;-96
2021/12/11 12:37:17;;;;;;;34.10;21.17;;;1.80;99.90;;;;;;4997729;28;20662;-96
2021/12/11 12:39:47;;;;;;;35.47;20.80;;;1.80;99.90;;;;;;4998242;28;20190;-96
2021/12/11 12:42:29;;;;;;;32.30;21.30;;;1.80;99.90;;;;;;4996973;28;20187;-96
2021/12/11 12:45:04;;;;;;;32.43;20.37;;;1.80;99.90;;;;;;4998268;28;20179;-96
2021/12/11 12:47:35;;;;;;;32.13;20.93;;;1.80;99.90;;;;;;4999184;28;20210;-96
2021/12/11 12:50:08;;;;;;;30.50;20.10;;;1.80;99.90;;;;;;4999917;28;20190;-96
2021/12/11 12:52:38;;;;;;;34.53;20.93;;;1.90;99.90;;;;;;4999014;28;20186;-96
2021/12/11 12:55:13;;;;;;;29.53;19.57;;;1.80;99.90;;;;;;4997739;28;20255;-96
2021/12/11 12:57:41;;;;;;;33.13;20.70;;;1.80;99.90;;;;;;4996981;28;20179;-96
2021/12/11 13:00:23;;;;;;;30.77;21.03;;;1.80;99.90;;;;;;4997608;28;20206;-96
2021/12/11 13:02:52;;;;;;;30.47;20.77;;;1.90;99.90;;;;;;4997550;28;20172;-96
2021/12/11 13:05:31;;;;;;;31.67;21.40;;;2.00;99.90;;;;;;4997444;28;20225;-95
2021/12/11 13:08:03;;;;;;;29.03;20.03;;;2.10;99.90;;;;;;4997266;28;20669;-96
2021/12/11 13:10:41;;;;;;;28.97;19.83;;;2.30;99.90;;;;;;4997307;28;20172;-95
2021/12/11 13:13:09;;;;;;;31.73;20.10;;;2.30;99.90;;;;;;4996534;28;20626;-96
2021/12/11 13:15:42;;;;;;;32.30;20.17;;;2.40;99.90;;;;;;4996542;28;20183;-96